sensor_id;sensor_type;location;lat;lon;timestamp;P1;durP1;ratioP1;P2;durP2;ratioP2
52266;SDS011;38223;50.940;4.034;2022-10-16T00:02:16;0.82;;;0.70;;
52266;SDS011;38223;50.940;4.034;2022-10-16T00:04:51;0.70;;;0.60;;
52266;SDS011;38223;50.940;4.034;2022-10-16T00:07:21;0.80;;;0.68;;
52266;SDS011;38223;50.940;4.034;2022-10-16T00:09:53;2.85;;;0.60;;
52266;SDS011;38223;50.940;4.034;2022-10-16T00:12:24;1.35;;;0.75;;
52266;SDS011;38223;50.940;4.034;2022-10-16T00:14:56;2.17;;;0.85;;
52266;SDS011;38223;50.940;4.034;2022-10-16T00:17:29;1.92;;;0.80;;
52266;SDS011;38223;50.940;4.034;2022-10-16T00:20:00;1.45;;;0.80;;
52266;SDS011;38223;50.940;4.034;2022-10-16T00:22:34;5.85;;;0.80;;
52266;SDS011;38223;50.940;4.034;2022-10-16T00:25:02;1.27;;;0.70;;
52266;SDS011;38223;50.940;4.034;2022-10-16T00:27:36;1.75;;;0.60;;
52266;SDS011;38223;50.940;4.034;2022-10-16T00:30:08;1.05;;;0.70;;
52266;SDS011;38223;50.940;4.034;2022-10-16T00:32:41;1.90;;;0.80;;
52266;SDS011;38223;50.940;4.034;2022-10-16T00:35:16;2.52;;;0.80;;
52266;SDS011;38223;50.940;4.034;2022-10-16T00:37:47;1.85;;;0.80;;
52266;SDS011;38223;50.940;4.034;2022-10-16T00:40:25;1.40;;;0.72;;
52266;SDS011;38223;50.940;4.034;2022-10-16T00:42:58;0.93;;;0.80;;
52266;SDS011;38223;50.940;4.034;2022-10-16T00:45:34;1.17;;;0.60;;
52266;SDS011;38223;50.940;4.034;2022-10-16T00:48:08;1.52;;;0.90;;
52266;SDS011;38223;50.940;4.034;2022-10-16T00:50:42;1.72;;;0.70;;
52266;SDS011;38223;50.940;4.034;2022-10-16T00:53:16;1.67;;;0.70;;
52266;SDS011;38223;50.940;4.034;2022-10-16T00:55:48;5.72;;;0.93;;
52266;SDS011;38223;50.940;4.034;2022-10-16T00:58:19;1.10;;;0.68;;
52266;SDS011;38223;50.940;4.034;2022-10-16T01:00:54;3.22;;;0.88;;
52266;SDS011;38223;50.940;4.034;2022-10-16T01:03:32;2.22;;;0.98;;
52266;SDS011;38223;50.940;4.034;2022-10-16T01:06:12;2.17;;;0.80;;
52266;SDS011;38223;50.940;4.034;2022-10-16T01:09:06;1.72;;;0.82;;
52266;SDS011;38223;50.940;4.034;2022-10-16T01:14:34;1.57;;;0.80;;
52266;SDS011;38223;50.940;4.034;2022-10-16T01:17:28;1.30;;;0.90;;
52266;SDS011;38223;50.940;4.034;2022-10-16T01:23:19;4.25;;;0.95;;
52266;SDS011;38223;50.940;4.034;2022-10-16T01:28:51;3.30;;;0.82;;
52266;SDS011;38223;50.940;4.034;2022-10-16T01:31:24;1.22;;;0.95;;
52266;SDS011;38223;50.940;4.034;2022-10-16T01:34:03;2.25;;;1.07;;
52266;SDS011;38223;50.940;4.034;2022-10-16T01:36:37;1.60;;;0.98;;
52266;SDS011;38223;50.940;4.034;2022-10-16T01:39:14;2.58;;;1.20;;
52266;SDS011;38223;50.940;4.034;2022-10-16T01:41:56;2.05;;;0.90;;
52266;SDS011;38223;50.940;4.034;2022-10-16T01:44:26;2.15;;;1.00;;
52266;SDS011;38223;50.940;4.034;2022-10-16T01:46:58;3.67;;;1.05;;
52266;SDS011;38223;50.940;4.034;2022-10-16T01:49:35;3.17;;;1.12;;
52266;SDS011;38223;50.940;4.034;2022-10-16T01:52:09;3.37;;;0.93;;
52266;SDS011;38223;50.940;4.034;2022-10-16T01:54:57;1.60;;;1.12;;
52266;SDS011;38223;50.940;4.034;2022-10-16T01:57:35;2.05;;;1.00;;
52266;SDS011;38223;50.940;4.034;2022-10-16T02:00:10;2.45;;;0.90;;
52266;SDS011;38223;50.940;4.034;2022-10-16T02:02:44;2.47;;;1.00;;
52266;SDS011;38223;50.940;4.034;2022-10-16T02:05:16;2.08;;;1.20;;
52266;SDS011;38223;50.940;4.034;2022-10-16T02:07:54;2.67;;;1.10;;
52266;SDS011;38223;50.940;4.034;2022-10-16T02:10:24;3.15;;;1.30;;
52266;SDS011;38223;50.940;4.034;2022-10-16T02:13:09;1.62;;;1.12;;
52266;SDS011;38223;50.940;4.034;2022-10-16T02:15:39;4.87;;;1.27;;
52266;SDS011;38223;50.940;4.034;2022-10-16T02:18:12;2.40;;;1.40;;
52266;SDS011;38223;50.940;4.034;2022-10-16T02:23:29;2.50;;;1.20;;
52266;SDS011;38223;50.940;4.034;2022-10-16T02:26:01;2.45;;;1.45;;
52266;SDS011;38223;50.940;4.034;2022-10-16T02:28:38;1.55;;;1.42;;
52266;SDS011;38223;50.940;4.034;2022-10-16T02:31:12;4.90;;;1.65;;
52266;SDS011;38223;50.940;4.034;2022-10-16T02:33:49;3.52;;;1.25;;
52266;SDS011;38223;50.940;4.034;2022-10-16T02:36:21;2.22;;;1.72;;
52266;SDS011;38223;50.940;4.034;2022-10-16T02:38:58;1.95;;;1.40;;
52266;SDS011;38223;50.940;4.034;2022-10-16T02:41:30;1.67;;;1.50;;
52266;SDS011;38223;50.940;4.034;2022-10-16T02:44:06;4.62;;;1.60;;
52266;SDS011;38223;50.940;4.034;2022-10-16T02:46:36;1.70;;;1.52;;
52266;SDS011;38223;50.940;4.034;2022-10-16T02:49:07;1.98;;;1.45;;
52266;SDS011;38223;50.940;4.034;2022-10-16T02:51:41;6.58;;;1.40;;
52266;SDS011;38223;50.940;4.034;2022-10-16T02:56:46;5.90;;;2.00;;
52266;SDS011;38223;50.940;4.034;2022-10-16T02:59:21;2.00;;;1.72;;
52266;SDS011;38223;50.940;4.034;2022-10-16T03:01:59;1.23;;;1.07;;
52266;SDS011;38223;50.940;4.034;2022-10-16T03:04:34;2.95;;;1.85;;
52266;SDS011;38223;50.940;4.034;2022-10-16T03:07:06;5.40;;;1.52;;
52266;SDS011;38223;50.940;4.034;2022-10-16T03:09:37;2.40;;;1.98;;
52266;SDS011;38223;50.940;4.034;2022-10-16T03:12:12;7.47;;;1.77;;
52266;SDS011;38223;50.940;4.034;2022-10-16T03:14:44;1.87;;;1.70;;
52266;SDS011;38223;50.940;4.034;2022-10-16T03:17:16;3.72;;;1.60;;
52266;SDS011;38223;50.940;4.034;2022-10-16T03:19:52;3.17;;;1.80;;
52266;SDS011;38223;50.940;4.034;2022-10-16T03:22:25;3.83;;;1.42;;
52266;SDS011;38223;50.940;4.034;2022-10-16T03:24:57;4.47;;;1.82;;
52266;SDS011;38223;50.940;4.034;2022-10-16T03:27:29;4.28;;;1.45;;
52266;SDS011;38223;50.940;4.034;2022-10-16T03:30:07;4.30;;;1.55;;
52266;SDS011;38223;50.940;4.034;2022-10-16T03:32:41;2.92;;;1.60;;
52266;SDS011;38223;50.940;4.034;2022-10-16T03:35:16;2.55;;;1.67;;
52266;SDS011;38223;50.940;4.034;2022-10-16T03:37:47;3.75;;;2.10;;
52266;SDS011;38223;50.940;4.034;2022-10-16T03:40:22;2.87;;;1.72;;
52266;SDS011;38223;50.940;4.034;2022-10-16T03:42:53;2.45;;;1.87;;
52266;SDS011;38223;50.940;4.034;2022-10-16T03:45:29;2.25;;;1.50;;
52266;SDS011;38223;50.940;4.034;2022-10-16T03:48:01;5.10;;;1.50;;
52266;SDS011;38223;50.940;4.034;2022-10-16T03:50:36;7.83;;;1.95;;
52266;SDS011;38223;50.940;4.034;2022-10-16T03:53:06;3.80;;;2.02;;
52266;SDS011;38223;50.940;4.034;2022-10-16T03:55:38;2.33;;;1.50;;
52266;SDS011;38223;50.940;4.034;2022-10-16T03:58:14;2.15;;;1.85;;
52266;SDS011;38223;50.940;4.034;2022-10-16T04:00:45;3.22;;;2.10;;
52266;SDS011;38223;50.940;4.034;2022-10-16T04:03:23;4.10;;;2.02;;
52266;SDS011;38223;50.940;4.034;2022-10-16T04:05:55;2.02;;;1.82;;
52266;SDS011;38223;50.940;4.034;2022-10-16T04:08:25;3.00;;;2.22;;
52266;SDS011;38223;50.940;4.034;2022-10-16T04:11:00;4.83;;;2.20;;
52266;SDS011;38223;50.940;4.034;2022-10-16T04:13:30;3.95;;;1.90;;
52266;SDS011;38223;50.940;4.034;2022-10-16T04:16:05;3.47;;;1.90;;
52266;SDS011;38223;50.940;4.034;2022-10-16T04:18:37;3.37;;;1.70;;
52266;SDS011;38223;50.940;4.034;2022-10-16T04:21:09;2.92;;;1.80;;
52266;SDS011;38223;50.940;4.034;2022-10-16T04:23:41;5.12;;;2.02;;
52266;SDS011;38223;50.940;4.034;2022-10-16T04:26:14;2.55;;;1.95;;
52266;SDS011;38223;50.940;4.034;2022-10-16T04:28:49;2.87;;;1.90;;
52266;SDS011;38223;50.940;4.034;2022-10-16T04:31:25;4.72;;;1.90;;
52266;SDS011;38223;50.940;4.034;2022-10-16T04:33:57;6.97;;;2.12;;
52266;SDS011;38223;50.940;4.034;2022-10-16T04:36:33;4.25;;;1.85;;
52266;SDS011;38223;50.940;4.034;2022-10-16T04:39:06;4.03;;;2.08;;
52266;SDS011;38223;50.940;4.034;2022-10-16T04:41:42;3.35;;;1.87;;
52266;SDS011;38223;50.940;4.034;2022-10-16T04:44:17;5.65;;;2.00;;
52266;SDS011;38223;50.940;4.034;2022-10-16T04:46:55;2.12;;;1.90;;
52266;SDS011;38223;50.940;4.034;2022-10-16T04:49:28;4.15;;;1.72;;
52266;SDS011;38223;50.940;4.034;2022-10-16T04:52:03;4.17;;;1.98;;
52266;SDS011;38223;50.940;4.034;2022-10-16T04:54:40;3.90;;;2.35;;
52266;SDS011;38223;50.940;4.034;2022-10-16T04:57:13;2.65;;;2.00;;
52266;SDS011;38223;50.940;4.034;2022-10-16T04:59:48;3.08;;;1.85;;
52266;SDS011;38223;50.940;4.034;2022-10-16T05:02:21;3.00;;;2.45;;
52266;SDS011;38223;50.940;4.034;2022-10-16T05:04:54;8.53;;;2.55;;
52266;SDS011;38223;50.940;4.034;2022-10-16T05:07:28;7.47;;;2.10;;
52266;SDS011;38223;50.940;4.034;2022-10-16T05:10:00;2.08;;;1.77;;
52266;SDS011;38223;50.940;4.034;2022-10-16T05:12:34;4.75;;;2.02;;
52266;SDS011;38223;50.940;4.034;2022-10-16T05:15:06;5.08;;;2.02;;
52266;SDS011;38223;50.940;4.034;2022-10-16T05:17:37;4.62;;;2.30;;
52266;SDS011;38223;50.940;4.034;2022-10-16T05:20:12;5.60;;;2.00;;
52266;SDS011;38223;50.940;4.034;2022-10-16T05:22:47;3.55;;;2.20;;
52266;SDS011;38223;50.940;4.034;2022-10-16T05:25:22;4.12;;;1.85;;
52266;SDS011;38223;50.940;4.034;2022-10-16T05:27:52;5.50;;;1.98;;
52266;SDS011;38223;50.940;4.034;2022-10-16T05:30:23;1.98;;;1.75;;
52266;SDS011;38223;50.940;4.034;2022-10-16T05:32:58;4.42;;;1.85;;
52266;SDS011;38223;50.940;4.034;2022-10-16T05:35:33;12.00;;;2.40;;
52266;SDS011;38223;50.940;4.034;2022-10-16T05:38:07;3.45;;;2.10;;
52266;SDS011;38223;50.940;4.034;2022-10-16T05:40:40;4.92;;;2.45;;
52266;SDS011;38223;50.940;4.034;2022-10-16T05:43:13;2.40;;;2.10;;
52266;SDS011;38223;50.940;4.034;2022-10-16T05:45:56;4.10;;;2.42;;
52266;SDS011;38223;50.940;4.034;2022-10-16T05:48:27;5.22;;;2.17;;
52266;SDS011;38223;50.940;4.034;2022-10-16T05:51:08;4.12;;;2.25;;
52266;SDS011;38223;50.940;4.034;2022-10-16T05:53:40;5.60;;;1.98;;
52266;SDS011;38223;50.940;4.034;2022-10-16T05:56:15;5.22;;;2.12;;
52266;SDS011;38223;50.940;4.034;2022-10-16T05:58:46;3.98;;;2.05;;
52266;SDS011;38223;50.940;4.034;2022-10-16T06:01:20;3.90;;;2.30;;
52266;SDS011;38223;50.940;4.034;2022-10-16T06:03:54;4.30;;;2.50;;
52266;SDS011;38223;50.940;4.034;2022-10-16T06:06:28;3.87;;;2.22;;
52266;SDS011;38223;50.940;4.034;2022-10-16T06:09:00;4.95;;;2.35;;
52266;SDS011;38223;50.940;4.034;2022-10-16T06:11:35;2.37;;;1.90;;
52266;SDS011;38223;50.940;4.034;2022-10-16T06:14:04;3.90;;;2.33;;
52266;SDS011;38223;50.940;4.034;2022-10-16T06:16:35;3.95;;;2.15;;
52266;SDS011;38223;50.940;4.034;2022-10-16T06:19:06;4.47;;;1.80;;
52266;SDS011;38223;50.940;4.034;2022-10-16T06:21:36;3.92;;;2.62;;
52266;SDS011;38223;50.940;4.034;2022-10-16T06:24:10;2.92;;;2.12;;
52266;SDS011;38223;50.940;4.034;2022-10-16T06:26:41;4.47;;;1.87;;
52266;SDS011;38223;50.940;4.034;2022-10-16T06:29:14;3.92;;;2.27;;
52266;SDS011;38223;50.940;4.034;2022-10-16T06:31:47;3.22;;;2.20;;
52266;SDS011;38223;50.940;4.034;2022-10-16T06:34:18;6.85;;;2.35;;
52266;SDS011;38223;50.940;4.034;2022-10-16T06:37:08;4.80;;;2.62;;
52266;SDS011;38223;50.940;4.034;2022-10-16T06:39:42;4.42;;;2.42;;
52266;SDS011;38223;50.940;4.034;2022-10-16T06:42:13;7.75;;;2.45;;
52266;SDS011;38223;50.940;4.034;2022-10-16T06:44:46;3.62;;;2.10;;
52266;SDS011;38223;50.940;4.034;2022-10-16T06:47:23;3.62;;;2.65;;
52266;SDS011;38223;50.940;4.034;2022-10-16T06:49:58;7.80;;;2.65;;
52266;SDS011;38223;50.940;4.034;2022-10-16T06:52:29;4.40;;;2.12;;
52266;SDS011;38223;50.940;4.034;2022-10-16T06:55:00;4.15;;;2.00;;
52266;SDS011;38223;50.940;4.034;2022-10-16T06:57:35;5.35;;;2.30;;
52266;SDS011;38223;50.940;4.034;2022-10-16T07:00:07;3.10;;;2.77;;
52266;SDS011;38223;50.940;4.034;2022-10-16T07:02:43;6.72;;;2.00;;
52266;SDS011;38223;50.940;4.034;2022-10-16T07:05:14;3.20;;;2.35;;
52266;SDS011;38223;50.940;4.034;2022-10-16T07:07:48;6.55;;;2.37;;
52266;SDS011;38223;50.940;4.034;2022-10-16T07:10:24;3.10;;;1.87;;
52266;SDS011;38223;50.940;4.034;2022-10-16T07:12:56;5.12;;;2.02;;
52266;SDS011;38223;50.940;4.034;2022-10-16T07:15:27;3.60;;;2.17;;
52266;SDS011;38223;50.940;4.034;2022-10-16T07:17:59;4.97;;;2.10;;
52266;SDS011;38223;50.940;4.034;2022-10-16T07:20:31;4.45;;;1.87;;
52266;SDS011;38223;50.940;4.034;2022-10-16T07:23:09;4.95;;;1.95;;
52266;SDS011;38223;50.940;4.034;2022-10-16T07:25:52;3.53;;;1.67;;
52266;SDS011;38223;50.940;4.034;2022-10-16T07:28:20;3.98;;;1.80;;
52266;SDS011;38223;50.940;4.034;2022-10-16T07:30:59;5.70;;;2.08;;
52266;SDS011;38223;50.940;4.034;2022-10-16T07:33:30;4.35;;;2.35;;
52266;SDS011;38223;50.940;4.034;2022-10-16T07:36:03;4.62;;;1.82;;
52266;SDS011;38223;50.940;4.034;2022-10-16T07:38:35;2.52;;;1.72;;
52266;SDS011;38223;50.940;4.034;2022-10-16T07:41:07;4.28;;;1.95;;
52266;SDS011;38223;50.940;4.034;2022-10-16T07:43:49;6.07;;;2.33;;
52266;SDS011;38223;50.940;4.034;2022-10-16T07:46:24;5.95;;;2.00;;
52266;SDS011;38223;50.940;4.034;2022-10-16T07:48:59;4.17;;;1.80;;
52266;SDS011;38223;50.940;4.034;2022-10-16T07:51:53;5.60;;;1.90;;
52266;SDS011;38223;50.940;4.034;2022-10-16T07:54:23;2.35;;;1.55;;
52266;SDS011;38223;50.940;4.034;2022-10-16T07:56:56;3.50;;;1.72;;
52266;SDS011;38223;50.940;4.034;2022-10-16T07:59:31;3.22;;;1.50;;
52266;SDS011;38223;50.940;4.034;2022-10-16T08:02:04;6.90;;;2.10;;
52266;SDS011;38223;50.940;4.034;2022-10-16T08:04:39;4.45;;;2.05;;
52266;SDS011;38223;50.940;4.034;2022-10-16T08:07:09;4.75;;;1.90;;
52266;SDS011;38223;50.940;4.034;2022-10-16T08:09:48;5.42;;;2.08;;
52266;SDS011;38223;50.940;4.034;2022-10-16T08:12:16;6.72;;;2.45;;
52266;SDS011;38223;50.940;4.034;2022-10-16T08:14:48;4.00;;;1.57;;
52266;SDS011;38223;50.940;4.034;2022-10-16T08:19:52;3.85;;;1.67;;
52266;SDS011;38223;50.940;4.034;2022-10-16T08:22:25;2.98;;;1.80;;
52266;SDS011;38223;50.940;4.034;2022-10-16T08:24:56;5.60;;;1.77;;
52266;SDS011;38223;50.940;4.034;2022-10-16T08:27:36;3.75;;;1.77;;
52266;SDS011;38223;50.940;4.034;2022-10-16T08:30:02;6.03;;;1.67;;
52266;SDS011;38223;50.940;4.034;2022-10-16T08:32:36;4.15;;;1.85;;
52266;SDS011;38223;50.940;4.034;2022-10-16T08:35:09;4.20;;;1.60;;
52266;SDS011;38223;50.940;4.034;2022-10-16T08:37:41;6.17;;;1.57;;
52266;SDS011;38223;50.940;4.034;2022-10-16T08:40:22;3.70;;;1.37;;
52266;SDS011;38223;50.940;4.034;2022-10-16T08:48:47;8.90;;;2.02;;
52266;SDS011;38223;50.940;4.034;2022-10-16T08:51:08;6.78;;;1.75;;
52266;SDS011;38223;50.940;4.034;2022-10-16T08:53:46;3.00;;;1.47;;
52266;SDS011;38223;50.940;4.034;2022-10-16T08:56:24;5.78;;;1.45;;
52266;SDS011;38223;50.940;4.034;2022-10-16T08:59:00;4.17;;;1.50;;
52266;SDS011;38223;50.940;4.034;2022-10-16T09:01:43;3.42;;;1.40;;
52266;SDS011;38223;50.940;4.034;2022-10-16T09:04:26;6.53;;;2.20;;
52266;SDS011;38223;50.940;4.034;2022-10-16T09:07:15;10.63;;;1.65;;
52266;SDS011;38223;50.940;4.034;2022-10-16T09:20:38;5.15;;;1.75;;
52266;SDS011;38223;50.940;4.034;2022-10-16T09:23:22;6.08;;;1.50;;
52266;SDS011;38223;50.940;4.034;2022-10-16T09:25:59;4.83;;;1.30;;
52266;SDS011;38223;50.940;4.034;2022-10-16T09:28:35;4.40;;;1.45;;
52266;SDS011;38223;50.940;4.034;2022-10-16T09:31:18;4.60;;;1.40;;
52266;SDS011;38223;50.940;4.034;2022-10-16T09:33:50;3.83;;;1.22;;
52266;SDS011;38223;50.940;4.034;2022-10-16T09:36:20;4.50;;;1.30;;
52266;SDS011;38223;50.940;4.034;2022-10-16T09:39:06;5.40;;;1.60;;
52266;SDS011;38223;50.940;4.034;2022-10-16T09:41:44;4.95;;;1.67;;
52266;SDS011;38223;50.940;4.034;2022-10-16T09:44:21;8.18;;;1.80;;
52266;SDS011;38223;50.940;4.034;2022-10-16T09:47:03;7.40;;;1.47;;
52266;SDS011;38223;50.940;4.034;2022-10-16T09:49:39;6.15;;;1.92;;
52266;SDS011;38223;50.940;4.034;2022-10-16T09:52:13;5.10;;;1.67;;
52266;SDS011;38223;50.940;4.034;2022-10-16T09:54:54;6.22;;;1.82;;
52266;SDS011;38223;50.940;4.034;2022-10-16T09:57:27;4.80;;;1.47;;
52266;SDS011;38223;50.940;4.034;2022-10-16T09:59:59;8.90;;;3.17;;
52266;SDS011;38223;50.940;4.034;2022-10-16T10:02:35;5.90;;;2.10;;
52266;SDS011;38223;50.940;4.034;2022-10-16T10:07:56;5.05;;;1.52;;
52266;SDS011;38223;50.940;4.034;2022-10-16T10:10:33;7.47;;;1.45;;
52266;SDS011;38223;50.940;4.034;2022-10-16T10:13:04;4.17;;;1.42;;
52266;SDS011;38223;50.940;4.034;2022-10-16T10:15:41;5.90;;;1.40;;
52266;SDS011;38223;50.940;4.034;2022-10-16T10:18:20;5.55;;;1.70;;
52266;SDS011;38223;50.940;4.034;2022-10-16T10:20:57;5.03;;;1.77;;
52266;SDS011;38223;50.940;4.034;2022-10-16T10:23:31;6.10;;;1.62;;
52266;SDS011;38223;50.940;4.034;2022-10-16T10:26:07;6.00;;;1.40;;
52266;SDS011;38223;50.940;4.034;2022-10-16T10:28:44;5.53;;;1.45;;
52266;SDS011;38223;50.940;4.034;2022-10-16T10:31:37;8.20;;;1.52;;
52266;SDS011;38223;50.940;4.034;2022-10-16T10:37:02;7.17;;;1.87;;
52266;SDS011;38223;50.940;4.034;2022-10-16T10:39:36;4.03;;;1.30;;
52266;SDS011;38223;50.940;4.034;2022-10-16T10:42:19;4.67;;;1.32;;
52266;SDS011;38223;50.940;4.034;2022-10-16T10:45:23;5.15;;;1.57;;
52266;SDS011;38223;50.940;4.034;2022-10-16T10:53:48;5.72;;;1.62;;
52266;SDS011;38223;50.940;4.034;2022-10-16T10:59:27;5.70;;;1.45;;
52266;SDS011;38223;50.940;4.034;2022-10-16T11:02:13;3.65;;;1.60;;
52266;SDS011;38223;50.940;4.034;2022-10-16T11:04:59;5.90;;;1.30;;
52266;SDS011;38223;50.940;4.034;2022-10-16T11:07:38;6.62;;;1.50;;
52266;SDS011;38223;50.940;4.034;2022-10-16T11:10:17;4.87;;;1.30;;
52266;SDS011;38223;50.940;4.034;2022-10-16T11:12:48;5.58;;;1.35;;
52266;SDS011;38223;50.940;4.034;2022-10-16T11:15:26;6.95;;;1.40;;
52266;SDS011;38223;50.940;4.034;2022-10-16T11:18:00;5.03;;;1.45;;
52266;SDS011;38223;50.940;4.034;2022-10-16T11:20:40;3.15;;;1.05;;
52266;SDS011;38223;50.940;4.034;2022-10-16T11:23:21;4.60;;;1.40;;
52266;SDS011;38223;50.940;4.034;2022-10-16T11:26:10;6.85;;;1.47;;
52266;SDS011;38223;50.940;4.034;2022-10-16T11:28:51;4.37;;;1.12;;
52266;SDS011;38223;50.940;4.034;2022-10-16T11:31:27;8.20;;;1.80;;
52266;SDS011;38223;50.940;4.034;2022-10-16T11:37:08;5.08;;;0.95;;
52266;SDS011;38223;50.940;4.034;2022-10-16T11:39:42;3.98;;;1.40;;
52266;SDS011;38223;50.940;4.034;2022-10-16T11:51:00;6.22;;;1.20;;
52266;SDS011;38223;50.940;4.034;2022-10-16T11:56:30;3.47;;;1.10;;
52266;SDS011;38223;50.940;4.034;2022-10-16T11:59:03;4.08;;;1.20;;
52266;SDS011;38223;50.940;4.034;2022-10-16T12:01:42;7.08;;;1.55;;
52266;SDS011;38223;50.940;4.034;2022-10-16T12:09:50;3.75;;;1.22;;
52266;SDS011;38223;50.940;4.034;2022-10-16T12:12:24;5.10;;;1.30;;
52266;SDS011;38223;50.940;4.034;2022-10-16T12:15:18;2.77;;;0.93;;
52266;SDS011;38223;50.940;4.034;2022-10-16T12:17:36;3.42;;;1.00;;
52266;SDS011;38223;50.940;4.034;2022-10-16T12:22:56;4.10;;;1.27;;
52266;SDS011;38223;50.940;4.034;2022-10-16T12:25:31;5.50;;;1.52;;
52266;SDS011;38223;50.940;4.034;2022-10-16T12:30:58;5.40;;;1.22;;
52266;SDS011;38223;50.940;4.034;2022-10-16T12:33:40;3.02;;;1.15;;
52266;SDS011;38223;50.940;4.034;2022-10-16T12:36:15;6.15;;;1.02;;
52266;SDS011;38223;50.940;4.034;2022-10-16T12:38:49;2.67;;;1.12;;
52266;SDS011;38223;50.940;4.034;2022-10-16T12:41:29;3.50;;;0.85;;
52266;SDS011;38223;50.940;4.034;2022-10-16T12:43:59;2.08;;;1.12;;
52266;SDS011;38223;50.940;4.034;2022-10-16T12:51:48;3.10;;;0.90;;
52266;SDS011;38223;50.940;4.034;2022-10-16T12:54:27;2.37;;;0.95;;
52266;SDS011;38223;50.940;4.034;2022-10-16T13:00:10;1.98;;;0.93;;
52266;SDS011;38223;50.940;4.034;2022-10-16T13:05:24;4.45;;;0.88;;
52266;SDS011;38223;50.940;4.034;2022-10-16T13:22:24;3.20;;;1.10;;
52266;SDS011;38223;50.940;4.034;2022-10-16T13:28:00;1.77;;;0.70;;
52266;SDS011;38223;50.940;4.034;2022-10-16T13:30:50;1.92;;;0.80;;
52266;SDS011;38223;50.940;4.034;2022-10-16T13:33:18;2.87;;;0.80;;
52266;SDS011;38223;50.940;4.034;2022-10-16T13:36:01;2.83;;;0.75;;
52266;SDS011;38223;50.940;4.034;2022-10-16T13:38:32;2.22;;;0.85;;
52266;SDS011;38223;50.940;4.034;2022-10-16T13:41:06;3.02;;;1.20;;
52266;SDS011;38223;50.940;4.034;2022-10-16T13:43:46;4.35;;;1.05;;
52266;SDS011;38223;50.940;4.034;2022-10-16T13:46:23;4.78;;;1.20;;
52266;SDS011;38223;50.940;4.034;2022-10-16T13:49:05;6.22;;;1.50;;
52266;SDS011;38223;50.940;4.034;2022-10-16T13:51:57;3.55;;;1.25;;
52266;SDS011;38223;50.940;4.034;2022-10-16T13:54:30;2.92;;;1.25;;
52266;SDS011;38223;50.940;4.034;2022-10-16T13:57:04;2.40;;;1.00;;
52266;SDS011;38223;50.940;4.034;2022-10-16T13:59:37;2.22;;;0.78;;
52266;SDS011;38223;50.940;4.034;2022-10-16T14:05:08;4.20;;;1.00;;
52266;SDS011;38223;50.940;4.034;2022-10-16T14:07:42;2.10;;;0.75;;
52266;SDS011;38223;50.940;4.034;2022-10-16T14:10:29;2.67;;;1.00;;
52266;SDS011;38223;50.940;4.034;2022-10-16T14:13:02;5.10;;;1.00;;
52266;SDS011;38223;50.940;4.034;2022-10-16T14:15:39;2.77;;;0.90;;
52266;SDS011;38223;50.940;4.034;2022-10-16T14:18:14;2.92;;;1.00;;
52266;SDS011;38223;50.940;4.034;2022-10-16T14:20:47;3.17;;;0.70;;
52266;SDS011;38223;50.940;4.034;2022-10-16T14:23:28;2.50;;;0.80;;
52266;SDS011;38223;50.940;4.034;2022-10-16T14:28:47;3.45;;;0.62;;
52266;SDS011;38223;50.940;4.034;2022-10-16T14:33:59;1.85;;;0.60;;
52266;SDS011;38223;50.940;4.034;2022-10-16T14:36:33;5.35;;;0.80;;
52266;SDS011;38223;50.940;4.034;2022-10-16T14:39:14;3.50;;;1.17;;
52266;SDS011;38223;50.940;4.034;2022-10-16T14:41:49;2.27;;;0.95;;
52266;SDS011;38223;50.940;4.034;2022-10-16T14:44:21;3.45;;;1.00;;
52266;SDS011;38223;50.940;4.034;2022-10-16T14:46:53;3.75;;;0.90;;
52266;SDS011;38223;50.940;4.034;2022-10-16T14:49:27;4.00;;;0.90;;
52266;SDS011;38223;50.940;4.034;2022-10-16T14:51:58;2.60;;;1.02;;
52266;SDS011;38223;50.940;4.034;2022-10-16T14:54:33;6.17;;;0.95;;
52266;SDS011;38223;50.940;4.034;2022-10-16T14:57:03;3.10;;;1.05;;
52266;SDS011;38223;50.940;4.034;2022-10-16T14:59:37;3.52;;;0.70;;
52266;SDS011;38223;50.940;4.034;2022-10-16T15:05:21;5.45;;;1.00;;
52266;SDS011;38223;50.940;4.034;2022-10-16T15:07:58;2.50;;;1.12;;
52266;SDS011;38223;50.940;4.034;2022-10-16T15:10:30;6.80;;;1.47;;
52266;SDS011;38223;50.940;4.034;2022-10-16T15:13:04;3.83;;;1.07;;
52266;SDS011;38223;50.940;4.034;2022-10-16T15:15:45;4.42;;;1.40;;
52266;SDS011;38223;50.940;4.034;2022-10-16T15:18:18;5.37;;;2.00;;
52266;SDS011;38223;50.940;4.034;2022-10-16T15:20:49;3.45;;;1.75;;
52266;SDS011;38223;50.940;4.034;2022-10-16T15:23:23;5.50;;;1.87;;
52266;SDS011;38223;50.940;4.034;2022-10-16T15:25:57;1.95;;;1.02;;
52266;SDS011;38223;50.940;4.034;2022-10-16T15:28:27;4.78;;;1.32;;
52266;SDS011;38223;50.940;4.034;2022-10-16T15:31:02;5.20;;;1.60;;
52266;SDS011;38223;50.940;4.034;2022-10-16T15:33:33;6.33;;;1.45;;
52266;SDS011;38223;50.940;4.034;2022-10-16T15:36:05;4.00;;;1.35;;
52266;SDS011;38223;50.940;4.034;2022-10-16T15:38:35;2.90;;;1.50;;
52266;SDS011;38223;50.940;4.034;2022-10-16T15:41:10;3.90;;;1.40;;
52266;SDS011;38223;50.940;4.034;2022-10-16T15:43:41;5.95;;;1.70;;
52266;SDS011;38223;50.940;4.034;2022-10-16T15:46:11;4.83;;;1.62;;
52266;SDS011;38223;50.940;4.034;2022-10-16T15:48:43;4.25;;;1.90;;
52266;SDS011;38223;50.940;4.034;2022-10-16T15:51:18;5.85;;;2.05;;
52266;SDS011;38223;50.940;4.034;2022-10-16T15:53:48;3.83;;;1.60;;
52266;SDS011;38223;50.940;4.034;2022-10-16T15:56:23;4.62;;;1.85;;
52266;SDS011;38223;50.940;4.034;2022-10-16T15:58:53;3.35;;;1.45;;
52266;SDS011;38223;50.940;4.034;2022-10-16T16:01:28;7.47;;;1.90;;
52266;SDS011;38223;50.940;4.034;2022-10-16T16:03:57;5.80;;;1.85;;
52266;SDS011;38223;50.940;4.034;2022-10-16T16:06:31;8.18;;;2.90;;
52266;SDS011;38223;50.940;4.034;2022-10-16T16:09:05;8.68;;;4.10;;
52266;SDS011;38223;50.940;4.034;2022-10-16T16:11:35;11.68;;;4.62;;
52266;SDS011;38223;50.940;4.034;2022-10-16T16:14:06;11.15;;;5.22;;
52266;SDS011;38223;50.940;4.034;2022-10-16T16:16:42;13.32;;;5.65;;
52266;SDS011;38223;50.940;4.034;2022-10-16T16:19:15;9.93;;;5.05;;
52266;SDS011;38223;50.940;4.034;2022-10-16T16:21:45;10.08;;;4.42;;
52266;SDS011;38223;50.940;4.034;2022-10-16T16:24:16;10.63;;;3.90;;
52266;SDS011;38223;50.940;4.034;2022-10-16T16:26:48;8.18;;;3.35;;
52266;SDS011;38223;50.940;4.034;2022-10-16T16:29:18;9.78;;;2.83;;
52266;SDS011;38223;50.940;4.034;2022-10-16T16:31:49;4.83;;;2.47;;
52266;SDS011;38223;50.940;4.034;2022-10-16T16:34:20;6.08;;;3.20;;
52266;SDS011;38223;50.940;4.034;2022-10-16T16:36:52;8.13;;;3.35;;
52266;SDS011;38223;50.940;4.034;2022-10-16T16:39:28;8.40;;;2.92;;
52266;SDS011;38223;50.940;4.034;2022-10-16T16:41:58;7.05;;;3.80;;
52266;SDS011;38223;50.940;4.034;2022-10-16T16:44:30;6.42;;;3.87;;
52266;SDS011;38223;50.940;4.034;2022-10-16T16:47:06;8.33;;;3.60;;
52266;SDS011;38223;50.940;4.034;2022-10-16T16:49:39;6.70;;;2.72;;
52266;SDS011;38223;50.940;4.034;2022-10-16T16:52:14;3.60;;;2.20;;
52266;SDS011;38223;50.940;4.034;2022-10-16T16:54:44;3.60;;;2.15;;
52266;SDS011;38223;50.940;4.034;2022-10-16T16:57:19;6.70;;;1.98;;
52266;SDS011;38223;50.940;4.034;2022-10-16T16:59:53;5.40;;;2.67;;
52266;SDS011;38223;50.940;4.034;2022-10-16T17:02:23;7.22;;;2.40;;
52266;SDS011;38223;50.940;4.034;2022-10-16T17:04:56;4.85;;;2.47;;
52266;SDS011;38223;50.940;4.034;2022-10-16T17:07:34;6.62;;;2.80;;
52266;SDS011;38223;50.940;4.034;2022-10-16T17:10:10;6.50;;;2.70;;
52266;SDS011;38223;50.940;4.034;2022-10-16T17:12:39;8.10;;;3.45;;
52266;SDS011;38223;50.940;4.034;2022-10-16T17:15:08;11.20;;;4.33;;
52266;SDS011;38223;50.940;4.034;2022-10-16T17:17:40;8.20;;;3.92;;
52266;SDS011;38223;50.940;4.034;2022-10-16T17:20:16;6.15;;;3.12;;
52266;SDS011;38223;50.940;4.034;2022-10-16T17:22:51;6.08;;;3.40;;
52266;SDS011;38223;50.940;4.034;2022-10-16T17:25:22;5.37;;;3.33;;
52266;SDS011;38223;50.940;4.034;2022-10-16T17:27:57;6.00;;;3.25;;